Time;durP1;ratioP1;P1;durP2;ratioP2;P2;SDS_P1;SDS_P2;PMS_P1;PMS_P2;Temp;Humidity;BMP_temperature;BMP_pressure;BME280_temperature;BME280_humidity;BME280_pressure;Samples;Min_cycle;Max_cycle;Signal;HPM_P1;HPM_P2
2022/08/28 00:00:21;;;;;;;3.00;1.58;;;23.70;99.90;;;;;;4210488;28;20343;-81
2022/08/28 00:02:24;;;;;;;3.20;1.90;;;23.70;99.90;;;;;;4215715;28;20234;-81
2022/08/28 00:04:26;;;;;;;2.97;1.70;;;23.70;99.90;;;;;;4215739;28;20207;-82
2022/08/28 00:06:30;;;;;;;2.15;1.40;;;23.70;99.90;;;;;;4210149;28;20576;-82
2022/08/28 00:08:32;;;;;;;3.75;1.48;;;23.70;99.90;;;;;;4215547;28;20267;-82
2022/08/28 00:10:35;;;;;;;2.83;1.30;;;23.70;99.90;;;;;;4215804;28;20210;-82
2022/08/28 00:12:39;;;;;;;1.70;1.60;;;23.70;99.90;;;;;;4215815;28;20240;-82
2022/08/28 00:14:41;;;;;;;2.10;1.58;;;23.70;99.90;;;;;;4215547;28;20625;-81
2022/08/28 00:16:44;;;;;;;2.55;1.65;;;23.70;99.90;;;;;;4214036;28;20248;-81
2022/08/28 00:18:47;;;;;;;2.13;1.60;;;23.70;99.90;;;;;;4215511;28;20577;-82
2022/08/28 00:20:50;;;;;;;1.98;1.77;;;23.70;99.90;;;;;;4215664;28;20252;-82
2022/08/28 00:22:54;;;;;;;2.78;1.80;;;23.70;99.90;;;;;;4215280;28;20320;-82
2022/08/28 00:24:57;;;;;;;2.80;1.60;;;23.70;99.90;;;;;;4215165;28;20719;-82
2022/08/28 00:29:21;;;;;;;2.85;1.80;;;23.70;99.90;;;;;;4210533;28;20202;-82
2022/08/28 00:31:23;;;;;;;2.72;1.50;;;23.70;99.90;;;;;;4214977;28;20282;-82
2022/08/28 00:33:28;;;;;;;3.08;1.80;;;23.70;99.90;;;;;;4209624;28;20272;-82
2022/08/28 00:35:31;;;;;;;3.20;1.75;;;23.70;99.90;;;;;;4214770;28;20215;-82
2022/08/28 00:37:34;;;;;;;2.75;1.63;;;23.70;99.90;;;;;;4214212;28;20206;-82
2022/08/28 00:39:38;;;;;;;2.70;1.60;;;23.70;99.90;;;;;;4214129;28;20264;-82
2022/08/28 00:41:41;;;;;;;2.15;1.50;;;23.70;99.90;;;;;;4214096;28;20219;-82
2022/08/28 00:43:45;;;;;;;2.03;1.55;;;23.70;99.90;;;;;;4213954;28;20230;-82
2022/08/28 00:45:48;;;;;;;2.75;1.80;;;23.70;99.90;;;;;;4215336;28;20654;-82
2022/08/28 00:47:51;;;;;;;2.70;1.45;;;23.70;99.90;;;;;;4209036;28;20223;-82
2022/08/28 00:49:55;;;;;;;4.20;1.77;;;23.70;99.90;;;;;;4213750;28;20214;-82
2022/08/28 00:52:04;;;;;;;2.13;1.50;;;23.70;99.90;;;;;;4213947;28;20218;-82
2022/08/28 00:54:07;;;;;;;2.30;1.27;;;23.70;99.90;;;;;;4213981;28;20252;-82
2022/08/28 00:56:13;;;;;;;2.90;1.67;;;23.70;99.90;;;;;;4214236;28;20272;-82
2022/08/28 00:58:16;;;;;;;2.72;1.58;;;23.70;99.90;;;;;;4213767;28;20234;-82
2022/08/28 01:00:23;;;;;;;4.30;1.90;;;23.70;99.90;;;;;;4214257;28;20653;-82
2022/08/28 01:02:26;;;;;;;2.35;1.48;;;23.70;99.90;;;;;;4213752;28;20242;-82
2022/08/28 01:04:31;;;;;;;3.22;1.88;;;23.70;99.90;;;;;;4213533;28;20276;-82
2022/08/28 01:06:34;;;;;;;2.50;1.52;;;23.70;99.90;;;;;;4213901;28;20214;-82
2022/08/28 01:08:39;;;;;;;2.83;1.65;;;23.60;99.90;;;;;;4208271;28;20222;-82
2022/08/28 01:10:44;;;;;;;2.88;1.95;;;23.70;99.90;;;;;;4214097;28;20210;-82
2022/08/28 01:12:49;;;;;;;2.78;1.70;;;23.60;99.90;;;;;;4213591;28;20279;-82
2022/08/28 01:14:56;;;;;;;2.53;1.77;;;23.70;99.90;;;;;;4208823;28;20210;-82
2022/08/28 01:16:59;;;;;;;2.90;2.00;;;23.60;99.90;;;;;;4213103;28;20289;-82
2022/08/28 01:19:03;;;;;;;3.30;1.60;;;23.60;99.90;;;;;;4213596;28;20263;-82
2022/08/28 01:21:16;;;;;;;2.17;1.58;;;23.70;99.90;;;;;;4213644;28;20610;-82
2022/08/28 01:23:29;;;;;;;3.55;2.05;;;23.60;99.90;;;;;;4213495;28;20330;-82
2022/08/28 01:25:35;;;;;;;2.55;1.70;;;23.60;99.90;;;;;;4210486;28;20673;-82
2022/08/28 01:27:40;;;;;;;2.95;1.55;;;23.60;99.90;;;;;;4212643;28;20210;-82
2022/08/28 01:29:43;;;;;;;3.28;1.77;;;23.60;99.90;;;;;;4213384;28;20214;-82
2022/08/28 01:31:46;;;;;;;3.60;2.15;;;23.60;99.90;;;;;;4213365;28;20210;-82
2022/08/28 01:33:48;;;;;;;3.13;1.90;;;23.60;99.90;;;;;;4213311;28;20236;-82
2022/08/28 01:35:51;;;;;;;2.17;1.58;;;23.70;99.90;;;;;;4212831;28;20218;-82
2022/08/28 01:37:54;;;;;;;2.25;1.80;;;23.60;99.90;;;;;;4212761;28;20206;-82
2022/08/28 01:39:56;;;;;;;2.60;1.77;;;23.60;99.90;;;;;;4213470;28;20210;-82
2022/08/28 01:42:03;;;;;;;3.92;1.63;;;23.60;99.90;;;;;;4208135;28;20214;-82
2022/08/28 01:44:06;;;;;;;2.63;1.52;;;23.60;99.90;;;;;;4213225;28;20226;-82
2022/08/28 01:46:09;;;;;;;2.30;1.63;;;23.60;99.90;;;;;;4213870;28;20203;-82
2022/08/28 01:48:13;;;;;;;2.33;1.52;;;23.60;99.90;;;;;;4213886;28;20255;-82
2022/08/28 01:50:19;;;;;;;3.17;1.50;;;23.60;99.90;;;;;;4213534;28;20272;-82
2022/08/28 01:52:22;;;;;;;3.55;1.70;;;23.60;99.90;;;;;;4213218;28;20692;-81
2022/08/28 01:54:25;;;;;;;2.22;1.60;;;23.60;99.90;;;;;;4214005;28;20214;-82
2022/08/28 01:56:28;;;;;;;3.08;1.52;;;23.60;99.90;;;;;;4210094;28;20210;-82
2022/08/28 01:58:32;;;;;;;3.00;1.75;;;23.60;99.90;;;;;;4213498;28;20230;-81
2022/08/28 02:00:35;;;;;;;2.60;1.90;;;23.60;99.90;;;;;;4214076;28;20256;-82
2022/08/28 02:02:38;;;;;;;2.45;1.50;;;23.60;99.90;;;;;;4214188;28;20617;-82
2022/08/28 02:04:40;;;;;;;2.85;1.80;;;23.60;99.90;;;;;;4214004;28;20218;-82
2022/08/28 02:06:43;;;;;;;1.95;1.60;;;23.60;99.90;;;;;;4212151;28;20276;-82
2022/08/28 02:08:45;;;;;;;3.45;1.98;;;23.50;99.90;;;;;;4219332;28;20263;-82
2022/08/28 02:10:48;;;;;;;4.05;1.75;;;23.60;99.90;;;;;;4213972;28;20218;-82
2022/08/28 02:12:50;;;;;;;2.63;1.70;;;23.60;99.90;;;;;;4214786;28;20213;-82
2022/08/28 02:14:54;;;;;;;2.80;1.63;;;23.60;99.90;;;;;;4213523;28;20286;-82
2022/08/28 02:16:57;;;;;;;2.55;1.60;;;23.50;99.90;;;;;;4202459;28;20214;-82
2022/08/28 02:18:59;;;;;;;2.20;1.60;;;23.60;99.90;;;;;;4213816;28;20623;-82
2022/08/28 02:21:02;;;;;;;3.17;1.58;;;23.60;99.90;;;;;;4212381;28;20286;-81
2022/08/28 02:23:04;;;;;;;2.63;1.52;;;23.60;99.90;;;;;;4206761;28;20283;-82
2022/08/28 02:25:08;;;;;;;2.65;1.73;;;23.50;99.90;;;;;;4213675;28;20218;-82
2022/08/28 02:27:11;;;;;;;4.45;1.90;;;23.60;99.90;;;;;;4212445;28;20569;-82
2022/08/28 02:29:13;;;;;;;1.95;1.70;;;23.60;99.90;;;;;;4211312;28;20236;-82
2022/08/28 02:31:17;;;;;;;2.70;1.70;;;23.60;99.90;;;;;;4213881;28;20210;-82
2022/08/28 02:33:19;;;;;;;2.67;1.63;;;23.50;99.90;;;;;;4211300;28;20255;-82
2022/08/28 02:35:22;;;;;;;2.95;1.70;;;23.60;99.90;;;;;;4211553;28;20271;-82
2022/08/28 02:37:25;;;;;;;2.25;1.60;;;23.50;99.90;;;;;;4213325;28;20252;-82
2022/08/28 02:39:27;;;;;;;3.38;1.60;;;23.60;99.90;;;;;;4211488;28;20240;-82
2022/08/28 02:41:30;;;;;;;2.85;1.63;;;23.50;99.90;;;;;;4213075;28;20268;-82
2022/08/28 02:43:32;;;;;;;3.08;1.70;;;23.60;99.90;;;;;;4213682;28;20225;-82
2022/08/28 02:45:35;;;;;;;3.03;1.80;;;23.50;99.90;;;;;;4212990;28;20264;-82
2022/08/28 02:47:39;;;;;;;2.55;1.50;;;23.60;99.90;;;;;;4213533;28;20608;-82
2022/08/28 02:49:42;;;;;;;2.90;1.90;;;23.60;99.90;;;;;;4208965;28;20211;-82
2022/08/28 02:51:44;;;;;;;3.05;1.65;;;23.60;99.90;;;;;;4210817;28;20210;-82
2022/08/28 02:53:47;;;;;;;2.40;1.70;;;23.50;99.90;;;;;;4213034;28;20218;-82
2022/08/28 02:55:49;;;;;;;2.45;1.83;;;23.50;99.90;;;;;;4213448;28;20727;-82
2022/08/28 02:57:53;;;;;;;2.55;1.45;;;23.50;99.90;;;;;;4212885;28;20226;-82
2022/08/28 02:59:55;;;;;;;3.50;2.05;;;23.50;99.90;;;;;;4212898;28;20256;-82
2022/08/28 03:01:57;;;;;;;2.80;1.73;;;23.60;99.90;;;;;;4213162;28;20608;-82
2022/08/28 03:04:02;;;;;;;2.40;1.50;;;23.50;99.90;;;;;;4207449;28;20238;-82
2022/08/28 03:06:05;;;;;;;2.65;1.80;;;23.50;99.90;;;;;;4213725;28;20646;-82
2022/08/28 03:08:07;;;;;;;2.92;1.70;;;23.50;99.90;;;;;;4212991;28;20264;-82
2022/08/28 03:10:10;;;;;;;3.28;1.80;;;23.50;99.90;;;;;;4213232;28;20253;-82
2022/08/28 03:12:13;;;;;;;3.40;1.90;;;23.50;99.90;;;;;;4213054;28;20210;-82
2022/08/28 03:14:15;;;;;;;2.50;1.60;;;23.50;99.90;;;;;;4214484;28;20202;-82
2022/08/28 03:16:18;;;;;;;2.22;1.85;;;23.50;99.90;;;;;;4216170;28;20545;-82
2022/08/28 03:18:20;;;;;;;4.25;1.70;;;23.50;99.90;;;;;;4213322;28;20227;-82
2022/08/28 03:20:25;;;;;;;3.00;1.75;;;23.50;99.90;;;;;;4212976;28;20272;-82
2022/08/28 03:24:43;;;;;;;4.20;2.13;;;23.50;99.90;;;;;;4211333;28;20305;-82
2022/08/28 03:26:46;;;;;;;3.25;1.75;;;23.50;99.90;;;;;;4215435;28;20207;-82
2022/08/28 03:28:50;;;;;;;3.20;1.70;;;23.50;99.90;;;;;;4216313;28;20211;-82
2022/08/28 03:30:53;;;;;;;5.28;1.88;;;23.40;99.90;;;;;;4213676;28;20221;-82
2022/08/28 03:32:55;;;;;;;4.90;2.00;;;23.40;99.90;;;;;;4216464;28;20211;-82
2022/08/28 03:34:58;;;;;;;2.50;1.70;;;23.50;99.90;;;;;;4216422;28;20210;-82
2022/08/28 03:37:01;;;;;;;3.60;1.88;;;23.40;99.90;;;;;;4216134;28;20275;-82
2022/08/28 03:39:06;;;;;;;3.20;2.10;;;23.40;99.90;;;;;;4215439;28;20268;-82
2022/08/28 03:41:10;;;;;;;2.90;1.80;;;23.40;99.90;;;;;;4218843;28;20247;-82
2022/08/28 03:43:15;;;;;;;3.85;1.70;;;23.40;99.90;;;;;;4210425;28;20232;-82
2022/08/28 03:45:17;;;;;;;3.00;1.90;;;23.40;99.90;;;;;;4215790;28;20362;-82
2022/08/28 03:47:19;;;;;;;3.00;2.08;;;23.40;99.90;;;;;;4215633;28;20264;-82
2022/08/28 03:49:22;;;;;;;3.78;1.75;;;23.40;99.90;;;;;;4216125;28;20604;-82
2022/08/28 03:51:26;;;;;;;3.80;2.22;;;23.40;99.90;;;;;;4215852;28;20695;-82
2022/08/28 03:53:30;;;;;;;3.15;1.95;;;23.40;99.90;;;;;;4216258;28;20260;-82
2022/08/28 03:55:34;;;;;;;3.63;2.00;;;23.50;99.90;;;;;;4215857;28;20202;-82
2022/08/28 03:57:36;;;;;;;4.13;2.15;;;23.40;99.90;;;;;;4212895;28;20234;-82
2022/08/28 03:59:39;;;;;;;2.70;1.83;;;23.40;99.90;;;;;;4215424;28;20281;-82
2022/08/28 04:01:41;;;;;;;3.72;1.95;;;23.40;99.90;;;;;;4215563;28;20343;-82
2022/08/28 04:03:44;;;;;;;3.05;1.80;;;23.40;99.90;;;;;;4215108;28;20207;-82
2022/08/28 04:05:46;;;;;;;3.60;2.10;;;23.40;99.90;;;;;;4210141;28;20211;-82
2022/08/28 04:07:50;;;;;;;2.63;1.80;;;23.40;99.90;;;;;;4215981;28;20260;-82
2022/08/28 04:09:54;;;;;;;3.72;2.20;;;23.40;99.90;;;;;;4208881;28;20273;-83
2022/08/28 04:11:56;;;;;;;2.50;1.63;;;23.40;99.90;;;;;;4213455;28;20218;-82
2022/08/28 04:13:58;;;;;;;2.78;1.90;;;23.40;99.90;;;;;;4215170;28;20283;-82
2022/08/28 04:16:06;;;;;;;3.65;2.20;;;23.40;99.90;;;;;;4210972;28;20211;-82
2022/08/28 04:18:09;;;;;;;4.80;2.17;;;23.40;99.90;;;;;;4212657;28;20707;-82
2022/08/28 04:20:11;;;;;;;2.92;2.15;;;23.40;99.90;;;;;;4214588;28;20648;-82
2022/08/28 04:22:13;;;;;;;3.55;2.20;;;23.40;99.90;;;;;;4214755;28;20281;-82
2022/08/28 04:24:16;;;;;;;2.55;1.98;;;23.40;99.90;;;;;;4214800;28;20250;-82
2022/08/28 04:26:21;;;;;;;2.72;1.90;;;23.40;99.90;;;;;;4214956;28;20716;-82
2022/08/28 04:28:24;;;;;;;3.90;2.13;;;23.40;99.90;;;;;;4215022;28;20255;-82
2022/08/28 04:30:27;;;;;;;4.40;2.33;;;23.40;99.90;;;;;;4215312;28;20218;-82
2022/08/28 04:32:29;;;;;;;4.10;2.42;;;23.40;99.90;;;;;;4214095;28;20264;-82
2022/08/28 04:34:31;;;;;;;3.60;2.00;;;23.40;99.90;;;;;;4215288;28;20210;-82
2022/08/28 04:36:34;;;;;;;4.82;2.30;;;23.40;99.90;;;;;;4209643;28;20222;-82
2022/08/28 04:38:36;;;;;;;3.60;2.10;;;23.30;99.90;;;;;;4214563;28;20218;-82
2022/08/28 04:40:39;;;;;;;2.88;2.15;;;23.40;99.90;;;;;;4215299;28;20222;-82
2022/08/28 04:42:44;;;;;;;3.00;2.08;;;23.40;99.90;;;;;;4215251;28;20279;-82
2022/08/28 04:44:46;;;;;;;3.10;2.00;;;23.40;99.90;;;;;;4211483;28;20573;-82
2022/08/28 04:46:48;;;;;;;6.65;2.70;;;23.40;99.90;;;;;;4215301;28;20740;-82
2022/08/28 04:48:50;;;;;;;5.15;2.42;;;23.30;99.90;;;;;;4214586;28;20214;-82
2022/08/28 04:50:53;;;;;;;3.83;1.92;;;23.40;99.90;;;;;;4213203;28;20210;-82
2022/08/28 04:52:55;;;;;;;4.07;2.10;;;23.40;99.90;;;;;;4215078;28;20228;-82
2022/08/28 04:54:57;;;;;;;3.78;2.28;;;23.30;99.90;;;;;;4214801;28;20210;-82
2022/08/28 04:57:00;;;;;;;2.25;1.98;;;23.30;99.90;;;;;;4214889;28;20256;-82
2022/08/28 04:59:04;;;;;;;2.90;2.10;;;23.40;99.90;;;;;;4214494;28;20230;-82
2022/08/28 05:01:09;;;;;;;3.50;2.05;;;23.40;99.90;;;;;;4214796;28;20650;-81
2022/08/28 05:03:12;;;;;;;2.75;1.80;;;23.30;99.90;;;;;;4214850;28;20218;-82
2022/08/28 05:05:14;;;;;;;4.43;2.28;;;23.30;99.90;;;;;;4214015;28;20283;-82
2022/08/28 05:07:17;;;;;;;4.20;2.25;;;23.30;99.90;;;;;;4224481;28;20263;-82
2022/08/28 05:09:20;;;;;;;3.72;2.15;;;23.30;99.90;;;;;;4214481;28;20557;-82
2022/08/28 05:11:24;;;;;;;4.43;2.20;;;23.30;99.90;;;;;;4214669;28;20211;-82
2022/08/28 05:13:27;;;;;;;3.15;1.88;;;23.30;99.90;;;;;;4214631;28;20686;-82
2022/08/28 05:15:31;;;;;;;4.88;2.53;;;23.30;99.90;;;;;;4214488;28;20244;-82
2022/08/28 05:17:33;;;;;;;4.15;2.40;;;23.30;99.90;;;;;;4214531;28;20268;-82
2022/08/28 05:19:35;;;;;;;3.38;2.30;;;23.30;99.90;;;;;;4214446;28;20218;-82
2022/08/28 05:21:38;;;;;;;2.60;1.90;;;23.30;99.90;;;;;;4214498;28;20255;-82
2022/08/28 05:23:41;;;;;;;4.85;2.33;;;23.30;99.90;;;;;;4214119;28;20598;-82
2022/08/28 05:25:45;;;;;;;5.32;2.35;;;23.30;99.90;;;;;;4214274;28;20237;-82
2022/08/28 05:27:47;;;;;;;3.45;2.05;;;23.30;99.90;;;;;;4213963;28;20248;-82
2022/08/28 05:29:51;;;;;;;4.07;2.42;;;23.30;99.90;;;;;;4214542;28;20215;-82
2022/08/28 05:31:55;;;;;;;4.03;2.42;;;23.30;99.90;;;;;;4214540;28;20211;-82
2022/08/28 05:33:58;;;;;;;4.35;2.53;;;23.30;99.90;;;;;;4214166;28;20210;-82
2022/08/28 05:36:04;;;;;;;4.30;2.75;;;23.30;99.90;;;;;;4214463;28;20214;-82
2022/08/28 05:38:08;;;;;;;3.30;2.20;;;23.30;99.90;;;;;;4214128;28;20256;-82
2022/08/28 05:40:11;;;;;;;5.95;2.50;;;23.30;99.90;;;;;;4212146;28;20252;-82
2022/08/28 05:42:13;;;;;;;3.05;2.10;;;23.30;99.90;;;;;;4214565;28;20610;-82
2022/08/28 05:44:17;;;;;;;4.70;2.63;;;23.30;99.90;;;;;;4214308;28;20660;-82
2022/08/28 05:46:19;;;;;;;3.72;2.40;;;23.30;99.90;;;;;;4212778;28;20630;-82
2022/08/28 05:48:23;;;;;;;4.05;2.20;;;23.30;99.90;;;;;;4213518;28;20695;-82
2022/08/28 05:50:25;;;;;;;3.20;2.00;;;23.30;99.90;;;;;;4214106;28;20256;-82
2022/08/28 05:52:29;;;;;;;3.38;2.22;;;23.30;99.90;;;;;;4206939;28;20269;-82
2022/08/28 05:54:31;;;;;;;2.75;2.25;;;23.30;99.90;;;;;;4213978;28;20211;-82
2022/08/28 05:56:36;;;;;;;3.72;2.30;;;23.30;99.90;;;;;;4213598;28;20214;-82
2022/08/28 05:58:39;;;;;;;3.22;2.20;;;23.30;99.90;;;;;;4208406;28;20260;-82
2022/08/28 06:00:41;;;;;;;3.30;2.40;;;23.30;99.90;;;;;;4214148;28;20218;-82
2022/08/28 06:02:43;;;;;;;4.50;2.60;;;23.30;99.90;;;;;;4212617;28;20724;-82
2022/08/28 06:04:47;;;;;;;3.30;2.38;;;23.30;99.90;;;;;;4213423;28;20222;-82
2022/08/28 06:06:50;;;;;;;3.42;2.05;;;23.30;99.90;;;;;;4213201;28;20226;-82
2022/08/28 06:08:57;;;;;;;2.90;2.30;;;23.30;99.90;;;;;;4213663;28;20658;-82
2022/08/28 06:11:01;;;;;;;3.50;2.38;;;23.30;99.90;;;;;;4213339;28;20219;-82
2022/08/28 06:13:03;;;;;;;4.03;2.42;;;23.30;99.90;;;;;;4213000;28;20255;-82
2022/08/28 06:15:06;;;;;;;3.00;2.17;;;23.30;99.90;;;;;;4204309;28;20214;-82
2022/08/28 06:17:08;;;;;;;4.72;2.47;;;23.30;99.90;;;;;;4218075;28;20207;-82
2022/08/28 06:19:12;;;;;;;3.97;2.47;;;23.30;99.90;;;;;;4208325;28;20206;-82
2022/08/28 06:21:15;;;;;;;4.65;2.38;;;23.30;99.90;;;;;;4219828;28;20654;-82
2022/08/28 06:23:19;;;;;;;4.40;2.22;;;23.30;99.90;;;;;;4213578;28;20218;-82
2022/08/28 06:25:21;;;;;;;4.43;1.95;;;23.30;99.90;;;;;;4210158;28;20207;-82
2022/08/28 06:27:23;;;;;;;3.30;2.28;;;23.30;99.90;;;;;;4213526;28;20621;-82
2022/08/28 06:29:28;;;;;;;4.28;2.63;;;23.30;99.90;;;;;;4213747;28;20218;-82
2022/08/28 06:31:30;;;;;;;3.58;2.20;;;23.30;99.90;;;;;;4205014;28;20211;-82
2022/08/28 06:33:33;;;;;;;4.38;2.42;;;23.30;99.90;;;;;;4213642;28;20265;-82
2022/08/28 06:35:40;;;;;;;3.40;1.85;;;23.30;99.90;;;;;;4213779;28;20256;-82
2022/08/28 06:37:44;;;;;;;3.58;2.35;;;23.30;99.90;;;;;;4213504;28;20604;-82
2022/08/28 06:39:46;;;;;;;6.00;2.95;;;23.30;99.90;;;;;;4210089;28;21020;-82
2022/08/28 06:41:49;;;;;;;7.22;2.42;;;23.30;99.90;;;;;;4213742;28;20214;-82
2022/08/28 06:43:51;;;;;;;3.78;2.40;;;23.30;99.90;;;;;;4208542;28;20743;-82
2022/08/28 06:45:55;;;;;;;4.47;2.60;;;23.30;99.90;;;;;;4213465;28;20242;-82
2022/08/28 06:47:58;;;;;;;4.30;2.60;;;23.30;99.90;;;;;;4207096;28;20218;-82
2022/08/28 06:50:00;;;;;;;4.63;2.55;;;23.30;99.90;;;;;;4210652;28;20620;-82
2022/08/28 06:52:03;;;;;;;4.20;2.28;;;23.30;99.90;;;;;;4213681;28;20677;-82
2022/08/28 06:54:06;;;;;;;6.50;2.30;;;23.30;99.90;;;;;;4213576;28;20625;-82
2022/08/28 06:56:12;;;;;;;3.97;2.30;;;23.30;99.90;;;;;;4213537;28;20252;-82
2022/08/28 06:58:14;;;;;;;3.97;2.22;;;23.30;99.90;;;;;;4212875;28;20291;-82
2022/08/28 07:00:17;;;;;;;4.10;2.20;;;23.30;99.90;;;;;;4215349;28;20214;-82
2022/08/28 07:02:20;;;;;;;4.38;2.20;;;23.30;99.90;;;;;;4217006;28;20214;-82
2022/08/28 07:04:22;;;;;;;4.57;2.45;;;23.30;99.90;;;;;;4212117;28;20206;-82
2022/08/28 07:06:25;;;;;;;3.65;2.20;;;23.30;99.90;;;;;;4216155;28;20279;-82
2022/08/28 07:08:29;;;;;;;4.22;2.50;;;23.30;99.90;;;;;;4216438;28;20218;-83
2022/08/28 07:10:32;;;;;;;6.78;2.40;;;23.30;99.90;;;;;;4217064;28;20355;-82
2022/08/28 07:12:35;;;;;;;3.33;2.30;;;23.30;99.90;;;;;;4214907;28;20222;-82
2022/08/28 07:14:37;;;;;;;4.13;2.53;;;23.30;99.90;;;;;;4216667;28;20912;-82
2022/08/28 07:16:40;;;;;;;3.38;2.20;;;23.30;99.90;;;;;;4217074;28;20267;-82
2022/08/28 07:18:43;;;;;;;5.38;2.60;;;23.30;99.90;;;;;;4216461;28;20259;-82
2022/08/28 07:20:54;;;;;;;4.47;2.63;;;23.30;99.90;;;;;;4216565;28;20268;-82
2022/08/28 07:22:56;;;;;;;4.32;2.20;;;23.30;99.90;;;;;;4207927;28;20327;-82
2022/08/28 07:24:59;;;;;;;4.20;2.20;;;23.30;99.90;;;;;;4216382;28;20260;-82
2022/08/28 07:27:04;;;;;;;4.13;2.70;;;23.30;99.90;;;;;;4216673;28;20256;-82
2022/08/28 07:29:07;;;;;;;5.07;2.40;;;23.20;99.90;;;;;;4211365;28;20700;-82
2022/08/28 07:31:13;;;;;;;3.55;2.10;;;23.30;99.90;;;;;;4216494;28;20267;-82
2022/08/28 07:33:15;;;;;;;6.05;2.42;;;23.30;99.90;;;;;;4216241;28;20244;-82
2022/08/28 07:35:18;;;;;;;3.20;2.20;;;23.30;99.90;;;;;;4216612;28;20211;-82
2022/08/28 07:37:20;;;;;;;3.72;2.60;;;23.30;99.90;;;;;;4216019;28;20214;-82
2022/08/28 07:39:22;;;;;;;2.75;2.28;;;23.30;99.90;;;;;;4213655;28;20252;-82
2022/08/28 07:41:27;;;;;;;5.25;2.53;;;23.30;99.90;;;;;;4214703;28;20276;-82
2022/08/28 07:45:58;;;;;;;4.28;2.40;;;23.20;99.90;;;;;;4208228;28;20206;-82
2022/08/28 07:48:02;;;;;;;5.22;2.60;;;23.20;99.90;;;;;;4212079;28;20213;-82
2022/08/28 07:50:05;;;;;;;3.88;2.47;;;23.30;99.90;;;;;;4216062;28;20263;-82
2022/08/28 07:52:09;;;;;;;3.72;2.67;;;23.30;99.90;;;;;;4215912;28;20218;-82
2022/08/28 07:54:11;;;;;;;4.22;2.30;;;23.20;99.90;;;;;;4216267;28;20218;-82
2022/08/28 07:56:14;;;;;;;4.30;2.47;;;23.20;99.90;;;;;;4211816;28;20206;-82
2022/08/28 07:58:16;;;;;;;3.83;2.40;;;23.20;99.90;;;;;;4215514;28;20283;-82
2022/08/28 08:00:20;;;;;;;2.85;2.05;;;23.20;99.90;;;;;;4216005;28;20267;-82
2022/08/28 08:02:22;;;;;;;5.43;2.50;;;23.20;99.90;;;;;;4216049;28;20210;-82
2022/08/28 08:04:25;;;;;;;4.10;2.80;;;23.30;99.90;;;;;;4218548;28;20218;-82
2022/08/28 08:06:30;;;;;;;4.15;2.70;;;23.30;99.90;;;;;;4217238;28;20234;-82
2022/08/28 08:08:34;;;;;;;3.78;2.42;;;23.20;99.90;;;;;;4216720;28;20214;-82
2022/08/28 08:10:36;;;;;;;5.10;2.20;;;23.20;99.90;;;;;;4214807;28;20284;-82
2022/08/28 08:12:41;;;;;;;3.63;2.47;;;23.30;99.90;;;;;;4214776;28;20943;-82
2022/08/28 08:14:44;;;;;;;3.15;2.47;;;23.20;99.90;;;;;;4210935;28;20245;-82
2022/08/28 08:16:48;;;;;;;4.65;2.22;;;23.30;99.90;;;;;;4215619;28;20724;-82
2022/08/28 08:18:52;;;;;;;4.15;2.47;;;23.20;99.90;;;;;;4216012;28;20323;-82
2022/08/28 08:20:54;;;;;;;5.38;2.50;;;23.30;99.90;;;;;;4223772;28;20259;-82
2022/08/28 08:22:56;;;;;;;3.08;2.03;;;23.30;99.90;;;;;;4215099;28;20210;-82
2022/08/28 08:24:59;;;;;;;3.92;2.40;;;23.30;99.90;;;;;;4215925;28;20207;-82
2022/08/28 08:27:02;;;;;;;3.17;2.10;;;23.30;99.90;;;;;;4211550;28;20348;-82
2022/08/28 08:29:05;;;;;;;4.05;2.35;;;23.30;99.90;;;;;;4206122;28;20702;-82
2022/08/28 08:31:10;;;;;;;6.45;2.70;;;23.30;99.90;;;;;;4208195;28;20210;-82
2022/08/28 08:33:14;;;;;;;3.65;2.17;;;23.30;99.90;;;;;;4215279;28;20252;-82
2022/08/28 08:35:18;;;;;;;4.13;2.38;;;23.30;99.90;;;;;;4205588;28;21054;-82
2022/08/28 08:37:20;;;;;;;4.53;2.40;;;23.30;99.90;;;;;;4215445;28;20211;-82
2022/08/28 08:39:23;;;;;;;3.28;2.20;;;23.30;99.90;;;;;;4215133;28;20625;-82
2022/08/28 08:41:29;;;;;;;4.80;2.33;;;23.30;99.90;;;;;;4215034;28;20214;-82
2022/08/28 08:43:43;;;;;;;5.28;2.10;;;23.30;99.90;;;;;;4214950;28;20206;-82
2022/08/28 08:45:46;;;;;;;4.95;2.50;;;23.30;99.90;;;;;;4209511;28;20259;-82
2022/08/28 08:47:51;;;;;;;4.47;2.45;;;23.30;99.90;;;;;;4214362;28;20234;-82
2022/08/28 08:50:00;;;;;;;5.15;2.20;;;23.30;99.90;;;;;;4214930;28;20642;-82
2022/08/28 08:52:24;;;;;;;5.50;2.33;;;23.30;99.90;;;;;;4215227;28;20264;-82
2022/08/28 08:54:27;;;;;;;3.63;2.50;;;23.30;99.90;;;;;;4213885;28;20268;-81
2022/08/28 08:56:30;;;;;;;4.88;2.33;;;23.30;99.90;;;;;;4211759;28;20256;-82
2022/08/28 08:58:36;;;;;;;3.70;2.40;;;23.30;99.90;;;;;;4214556;28;20230;-82
2022/08/28 09:00:46;;;;;;;2.80;2.08;;;23.30;99.90;;;;;;4214606;28;20267;-81
2022/08/28 09:02:56;;;;;;;4.75;2.33;;;23.40;99.90;;;;;;4214842;28;20215;-82
2022/08/28 09:05:04;;;;;;;4.32;2.30;;;23.30;99.90;;;;;;4207560;28;20219;-82
2022/08/28 09:07:14;;;;;;;5.80;2.42;;;23.30;99.90;;;;;;4214711;28;20973;-82
2022/08/28 09:09:21;;;;;;;3.80;2.20;;;23.40;99.90;;;;;;4214595;28;20607;-82
2022/08/28 09:11:34;;;;;;;4.35;2.10;;;23.40;99.90;;;;;;4214660;28;20211;-82
2022/08/28 09:13:48;;;;;;;6.10;2.47;;;23.40;99.90;;;;;;4213554;28;20259;-82
2022/08/28 09:15:51;;;;;;;3.72;2.05;;;23.40;99.90;;;;;;4209812;28;20215;-82
2022/08/28 09:17:55;;;;;;;3.85;2.50;;;23.40;99.90;;;;;;4214368;28;20207;-82
2022/08/28 09:19:58;;;;;;;4.47;2.42;;;23.40;99.90;;;;;;4210039;28;20214;-82
2022/08/28 09:22:02;;;;;;;4.47;2.40;;;23.40;99.90;;;;;;4211540;28;20252;-82
2022/08/28 09:24:10;;;;;;;4.07;2.20;;;23.40;99.90;;;;;;4214456;28;20211;-82
2022/08/28 09:26:22;;;;;;;3.22;2.30;;;23.40;99.90;;;;;;4213938;28;20214;-82
2022/08/28 09:28:28;;;;;;;4.85;2.35;;;23.50;99.90;;;;;;4216144;28;20238;-82
2022/08/28 09:30:31;;;;;;;5.53;2.33;;;23.40;99.90;;;;;;4213886;28;20218;-82
2022/08/28 09:32:37;;;;;;;2.42;2.10;;;23.40;99.90;;;;;;4214606;28;20279;-82
2022/08/28 09:34:39;;;;;;;4.00;2.22;;;23.40;99.90;;;;;;4214376;28;20218;-82
2022/08/28 09:36:42;;;;;;;5.40;2.53;;;23.40;99.90;;;;;;4214067;28;20210;-82
2022/08/28 09:38:45;;;;;;;3.50;2.30;;;23.40;99.90;;;;;;4209952;28;20214;-82
2022/08/28 09:43:26;;;;;;;6.05;2.30;;;23.40;99.90;;;;;;4214265;28;20593;-81
2022/08/28 09:45:32;;;;;;;4.40;2.58;;;23.50;99.90;;;;;;4213992;28;20264;-82
2022/08/28 09:47:40;;;;;;;4.68;2.40;;;23.50;99.90;;;;;;4213836;28;20579;-82
2022/08/28 09:49:42;;;;;;;3.95;2.40;;;23.50;99.90;;;;;;4212017;28;20274;-82
2022/08/28 09:51:44;;;;;;;4.75;2.40;;;23.50;99.90;;;;;;4214124;28;20260;-81
2022/08/28 09:54:01;;;;;;;3.38;2.60;;;23.50;99.90;;;;;;4214233;28;20214;-81
2022/08/28 09:56:11;;;;;;;3.67;2.08;;;23.50;99.90;;;;;;4213238;28;20263;-81
2022/08/28 09:58:13;;;;;;;4.47;2.40;;;23.50;99.90;;;;;;4213589;28;20279;-82
2022/08/28 10:00:15;;;;;;;6.25;2.60;;;23.50;99.90;;;;;;4213842;28;20251;-81
2022/08/28 10:02:29;;;;;;;4.15;2.10;;;23.50;99.90;;;;;;4214120;28;20281;-81
2022/08/28 10:04:49;;;;;;;3.80;2.17;;;23.50;99.90;;;;;;4213566;28;20210;-81
2022/08/28 10:06:54;;;;;;;4.40;2.25;;;23.50;99.90;;;;;;4213573;28;20206;-82
2022/08/28 10:09:06;;;;;;;4.50;2.15;;;23.50;99.90;;;;;;4213620;28;20299;-81
2022/08/28 10:11:19;;;;;;;4.28;2.35;;;23.60;99.90;;;;;;4213409;28;20265;-81
2022/08/28 10:13:28;;;;;;;4.00;2.40;;;23.60;99.90;;;;;;4212250;28;20207;-82
2022/08/28 10:15:42;;;;;;;4.60;2.22;;;23.60;99.90;;;;;;4210653;28;20218;-81
2022/08/28 10:17:56;;;;;;;3.95;2.05;;;23.60;99.90;;;;;;4213832;28;20206;-81
2022/08/28 10:20:08;;;;;;;3.70;2.20;;;23.50;99.90;;;;;;4214021;28;20272;-81
2022/08/28 10:22:22;;;;;;;4.20;2.25;;;23.60;99.90;;;;;;4213771;28;20213;-81
2022/08/28 10:24:44;;;;;;;3.83;2.35;;;23.50;99.90;;;;;;4213579;28;20260;-81
2022/08/28 10:26:53;;;;;;;3.40;2.08;;;23.60;99.90;;;;;;4210353;28;20232;-81
2022/08/28 10:29:09;;;;;;;5.88;2.35;;;23.60;99.90;;;;;;4207214;28;20234;-81
2022/08/28 10:31:19;;;;;;;3.50;2.22;;;23.60;99.90;;;;;;4211493;28;20661;-81
2022/08/28 10:33:38;;;;;;;3.40;2.00;;;23.60;99.90;;;;;;4213586;28;20244;-81
2022/08/28 10:35:49;;;;;;;4.63;2.38;;;23.60;99.90;;;;;;4212969;28;20691;-81
2022/08/28 10:38:01;;;;;;;3.22;2.05;;;23.60;99.90;;;;;;4213309;28;20614;-81
2022/08/28 10:40:13;;;;;;;5.60;2.40;;;23.60;99.90;;;;;;4213455;28;20543;-81
2022/08/28 10:42:20;;;;;;;3.80;2.30;;;23.60;99.90;;;;;;4211543;28;20231;-82
2022/08/28 10:44:34;;;;;;;3.05;2.10;;;23.60;99.90;;;;;;4212683;28;20210;-81
2022/08/28 10:46:41;;;;;;;3.70;2.22;;;23.60;99.90;;;;;;4207505;28;20209;-81
2022/08/28 10:48:47;;;;;;;4.40;2.28;;;23.60;99.90;;;;;;4209796;28;20311;-81
2022/08/28 10:50:52;;;;;;;3.95;2.38;;;23.60;99.90;;;;;;4213503;28;20260;-81
2022/08/28 10:52:59;;;;;;;3.58;2.15;;;23.60;99.90;;;;;;4213692;28;20495;-82
2022/08/28 10:55:08;;;;;;;3.55;2.53;;;23.60;99.90;;;;;;4213782;28;20206;-81
2022/08/28 10:57:28;;;;;;;3.63;1.95;;;23.60;99.90;;;;;;4206437;28;20613;-81